• Join FlightAware (Why Join?)
  • Login
  • US Flag 
09:58AM EST


 

Airport Tracker/Info


-or-


 

Live Flight TrackerFlight Track Log ✈ DAL6057 ✈ 21-Apr-2013 ✈ KCMH - KDTW

Flight Track Log - Related Links

Times and Time Zones

All times are in EDT time to prevent confusion due to time zone crossing. See the DAL6057 flight status page for this flight to view local times or setup timezone preferences in your user account.

Time Position Orientation Groundspeed Altitude Reporting Facility
EDT Latitude Longitude Course Direction KTS MPH feet Rate Location/Type
06:52AM 40.0028 -82.9075 269° West 163 188 1,200  Level Indianapolis Center
06:52AM 40.0022 -82.9456 269° West 165 190 2,300 1,860 Climbing Indianapolis Center
06:53AM 40.0042 -83.0000 273° West 204 235 3,800 2,640 Climbing Indianapolis Center
06:53AM 40.0172 -83.0317 298° West 263 303 5,000 2,700 Climbing Indianapolis Center
06:54AM 40.0581 -83.0325 359° North 252 290 6,500 2,640 Climbing Indianapolis Center
06:55AM 40.1100 -82.9658 44° Northeast 259 298 9,700 2,400 Climbing Indianapolis Center
06:56AM 40.1686 -82.8969 42° Northeast 279 321 11,400 1,740 Climbing Indianapolis Center
06:57AM 40.2339 -82.8183 43° Northeast 313 360 13,300 1,800 Climbing Indianapolis Center
06:58AM 40.2992 -82.7386 43° Northeast 328 377 15,100 1,680 Climbing Indianapolis Center
06:59AM 40.3697 -82.6517 43° Northeast 344 396 16,800 1,380 Climbing Indianapolis Center
07:00AM 40.4494 -82.5756 36° Northeast 356 410 17,900 1,620 Climbing Indianapolis Center
07:01AM 40.5450 -82.5342 18° North 355 409 20,100 2,040 Climbing Indianapolis Center
07:02AM 40.6381 -82.4919 19° North 350 403 22,100 1,620 Climbing Indianapolis Center
07:03AM 40.7147 -82.4569 19° North 354 407 22,900 480 Climbing Cleveland Center
07:04AM 40.8069 -82.4128 20° North 368 423 23,000  Climbing Cleveland Center
07:05AM 40.9183 -82.3636 18° North 399 459 23,000  Level Cleveland Center
07:06AM 41.0381 -82.3092 19° North 434 499 23,000  Level Cleveland Center
07:07AM 41.1511 -82.2681 15° North 435 501 23,000  Level Cleveland Center
07:08AM 41.2675 -82.3042 347° North 385 443 23,000 -540 Level Cleveland Center
07:09AM 41.3472 -82.3947 320° Northwest 374 430 22,000 -1,680 Descending Cleveland Center
07:10AM 41.4272 -82.4747 323° Northwest 374 430 19,700 -2,520 Descending Cleveland Center
07:10AM 41.4539 -82.5031 321° Northwest 353 406 18,400 -2,400 Descending Cleveland Center
07:11AM 41.5053 -82.5544 323° Northwest 358 412 17,300 -2,280 Descending Cleveland Center
07:11AM 41.5381 -82.5861 324° Northwest 336 387 16,100 -2,640 Descending Cleveland Center
07:12AM 41.5789 -82.6289 322° Northwest 349 402 14,700 -2,400 Descending Cleveland Center
07:12AM 41.6056 -82.6575 321° Northwest 332 382 13,900 -1,800 Descending Cleveland Center
07:13AM 41.6403 -82.6947 321° Northwest 339 390 12,900 -1,200 Descending Cleveland Center
07:14AM 41.7200 -82.7781 322° Northwest 334 384 12,000 -660 Descending Cleveland Center
07:14AM 41.7486 -82.8097 320° Northwest 321 369 12,000  Level Cleveland Center
07:15AM 41.7872 -82.8556 318° Northwest 329 379 12,000  Level Cleveland Center
07:15AM 41.8117 -82.8844 319° Northwest 329 379 12,000  Level Cleveland Center
07:16AM 41.8567 -82.9389 318° Northwest 324 373 12,000  Level Cleveland Center
07:16AM 41.8831 -82.9706 318° Northwest 329 379 12,000  Level Cleveland Center
07:17AM 41.9217 -83.0194 317° Northwest 324 373 12,000  Level Cleveland Center
07:17AM 41.9442 -83.0397 326° Northwest 323 372 12,000  Level Cleveland Center
07:18AM 41.9886 -83.0975 316° Northwest 324 373 12,000  Level Cleveland Center
07:18AM 42.0131 -83.1264 319° Northwest 320 368 12,000  Level Cleveland Center
07:19AM 42.0556 -83.1783 318° Northwest 324 373 12,000  Level Cleveland Center
07:19AM 42.0781 -83.2044 319° Northwest 262 302 12,000 -420 Level Cleveland Center
07:20AM 42.1069 -83.2169 342° North 278 320 11,600 -1,320 Descending Cleveland Center
07:20AM 42.1400 -83.2294 344° North 227 261 10,700 -1,980 Descending Cleveland Center
07:21AM 42.2028 -83.2153 North 221 254 8,800 -1,920 Descending Cleveland Center
07:22AM 42.2556 -83.1839 24° Northeast 215 247 6,900 -1,620 Descending Cleveland Center
07:23AM 42.3128 -83.1497 24° Northeast 217 250 5,600 -1,200 Descending Cleveland Center
07:24AM 42.3561 -83.1711 340° North 224 258 4,700 -1,020 Descending Cleveland Center